createdAt,value
2018-03-07T00:02:28.753Z,48.72
2018-03-07T00:05:03.294Z,50.42
2018-03-07T00:07:37.996Z,53.58
2018-03-07T00:10:12.505Z,50.65
2018-03-07T00:12:47.008Z,54.85
2018-03-07T00:15:21.780Z,51.83
2018-03-07T00:17:57.044Z,51.42
2018-03-07T00:20:32.274Z,55.80
2018-03-07T00:23:07.695Z,51.10
2018-03-07T00:25:42.003Z,51.30
2018-03-07T00:28:16.722Z,55.63
2018-03-07T00:30:51.132Z,51.78
2018-03-07T00:33:25.583Z,55.20
2018-03-07T00:36:00.186Z,53.78
2018-03-07T00:38:36.279Z,52.80
2018-03-07T00:41:10.576Z,56.67
2018-03-07T00:43:45.927Z,53.30
2018-03-07T00:46:20.351Z,51.50
2018-03-07T00:48:54.897Z,54.17
2018-03-07T00:51:29.312Z,51.03
2018-03-07T00:54:03.831Z,55.50
2018-03-07T00:56:39.202Z,56.70
2018-03-07T00:59:13.890Z,53.75
2018-03-07T01:01:48.348Z,58.30
2018-03-07T01:04:23.757Z,55.28
2018-03-07T01:06:58.300Z,52.80
2018-03-07T01:09:32.995Z,55.65
2018-03-07T01:12:08.066Z,55.97
2018-03-07T01:14:42.607Z,51.90
2018-03-07T01:17:17.521Z,54.53
2018-03-07T01:19:52.643Z,55.22
2018-03-07T01:22:27.170Z,54.67
2018-03-07T01:25:02.011Z,54.53
2018-03-07T01:27:37.178Z,54.00
2018-03-07T01:30:11.648Z,52.62
2018-03-07T01:32:46.582Z,54.97
2018-03-07T01:35:22.024Z,52.70
2018-03-07T01:37:57.568Z,54.28
2018-03-07T01:40:32.818Z,57.67
2018-03-07T01:43:07.196Z,52.25
2018-03-07T01:45:41.600Z,54.70
2018-03-07T01:48:16.103Z,56.60
2018-03-07T01:50:51.985Z,51.53
2018-03-07T01:53:26.608Z,55.53
2018-03-07T01:56:01.175Z,55.95
2018-03-07T01:58:35.670Z,54.78
2018-03-07T02:01:10.224Z,54.22
2018-03-07T02:03:44.746Z,56.80
2018-03-07T02:06:20.096Z,56.40
2018-03-07T02:08:54.576Z,56.40
2018-03-07T02:11:29.163Z,52.92
2018-03-07T02:14:03.604Z,55.83
2018-03-07T02:16:37.989Z,54.55
2018-03-07T02:19:12.382Z,56.50
2018-03-07T02:21:47.026Z,55.67
2018-03-07T02:24:21.416Z,55.17
2018-03-07T02:26:55.953Z,54.50
2018-03-07T02:29:30.528Z,55.67
2018-03-07T02:32:05.061Z,53.65
2018-03-07T02:34:39.556Z,54.92
2018-03-07T02:37:18.694Z,56.92
2018-03-07T02:39:54.019Z,54.72
2018-03-07T02:42:28.451Z,54.47
2018-03-07T02:45:03.211Z,57.58
2018-03-07T02:47:37.796Z,53.55
2018-03-07T02:50:12.300Z,55.03
2018-03-07T02:52:47.717Z,54.45
2018-03-07T02:55:22.107Z,54.10
2018-03-07T02:57:56.697Z,54.40
2018-03-07T03:00:31.287Z,55.70
2018-03-07T03:03:05.951Z,52.72
2018-03-07T03:05:40.370Z,54.90
2018-03-07T03:08:15.013Z,56.65
2018-03-07T03:10:50.354Z,55.22
2018-03-07T03:13:25.180Z,54.60
2018-03-07T03:15:59.701Z,53.40
2018-03-07T03:18:35.261Z,59.67
2018-03-07T03:21:09.788Z,55.55
2018-03-07T03:23:45.109Z,56.97
2018-03-07T03:26:20.229Z,54.38
2018-03-07T03:28:55.868Z,58.70
2018-03-07T03:31:30.296Z,53.75
2018-03-07T03:34:05.464Z,55.95
2018-03-07T03:36:40.398Z,55.10
2018-03-07T03:39:15.519Z,55.67
2018-03-07T03:41:51.164Z,55.53
2018-03-07T03:44:26.616Z,55.22
2018-03-07T03:47:01.085Z,56.20
2018-03-07T03:49:35.864Z,54.53
2018-03-07T03:52:10.313Z,54.58
2018-03-07T03:54:45.177Z,56.22
2018-03-07T03:57:19.748Z,56.92
2018-03-07T03:59:54.399Z,56.78
2018-03-07T04:02:28.847Z,56.92
2018-03-07T04:05:03.414Z,57.83
2018-03-07T04:07:37.813Z,60.50
2018-03-07T04:10:12.718Z,56.25
2018-03-07T04:12:47.220Z,56.22
2018-03-07T04:15:21.669Z,57.47
2018-03-07T04:17:56.065Z,58.15
2018-03-07T04:20:30.760Z,55.92
2018-03-07T04:23:05.411Z,55.17
2018-03-07T04:25:40.225Z,57.03
2018-03-07T04:28:14.638Z,57.35
2018-03-07T04:30:49.467Z,58.15
2018-03-07T04:33:23.923Z,57.90
2018-03-07T04:35:58.714Z,57.62
2018-03-07T04:38:33.282Z,58.13
2018-03-07T04:41:07.684Z,57.20
2018-03-07T04:43:42.238Z,58.65
2018-03-07T04:46:16.592Z,57.25
2018-03-07T04:48:51.429Z,56.30
2018-03-07T04:51:26.059Z,57.55
2018-03-07T04:54:00.511Z,58.15
2018-03-07T04:56:35.104Z,59.15
2018-03-07T04:59:09.577Z,54.72
2018-03-07T05:01:45.181Z,59.55
2018-03-07T05:04:19.751Z,56.65
2018-03-07T05:06:54.428Z,61.50
2018-03-07T05:09:28.886Z,55.20
2018-03-07T05:12:04.232Z,60.30
2018-03-07T05:14:38.801Z,60.90
2018-03-07T05:17:13.317Z,58.78
2018-03-07T05:19:47.709Z,58.50
2018-03-07T05:22:22.182Z,57.83
2018-03-07T05:24:57.496Z,61.37
2018-03-07T05:27:32.158Z,60.90
2018-03-07T05:30:06.727Z,59.67
2018-03-07T05:32:41.192Z,57.55
2018-03-07T05:35:16.145Z,60.72
2018-03-07T05:37:50.808Z,59.10
2018-03-07T05:40:25.836Z,59.60
2018-03-07T05:43:00.517Z,63.03
2018-03-07T05:45:34.933Z,62.60
2018-03-07T05:48:09.489Z,62.17
2018-03-07T05:50:43.839Z,62.58
2018-03-07T05:53:19.029Z,61.30
2018-03-07T05:55:53.293Z,61.75
2018-03-07T05:58:27.860Z,62.38
2018-03-07T06:01:02.173Z,58.47
2018-03-07T06:03:36.700Z,63.35
2018-03-07T06:06:12.055Z,64.90
2018-03-07T06:08:46.779Z,61.17
2018-03-07T06:11:21.221Z,63.08
2018-03-07T06:13:55.817Z,62.28
2018-03-07T06:16:30.277Z,64.20
2018-03-07T06:19:04.861Z,63.65
2018-03-07T06:21:40.083Z,64.28
2018-03-07T06:24:15.344Z,67.18
2018-03-07T06:26:49.852Z,67.85
2018-03-07T06:29:24.439Z,70.43
2018-03-07T06:31:58.861Z,67.15
2018-03-07T06:34:33.308Z,66.62
2018-03-07T06:37:07.771Z,70.32
2018-03-07T06:39:42.390Z,67.87
2018-03-07T06:42:16.977Z,68.78
2018-03-07T06:44:51.529Z,67.00
2018-03-07T06:47:25.997Z,66.20
2018-03-07T06:50:01.188Z,68.75
2018-03-07T06:52:35.653Z,70.97
2018-03-07T06:55:10.236Z,71.72
2018-03-07T06:57:44.760Z,70.25
2018-03-07T07:00:19.421Z,72.12
2018-03-07T07:02:54.449Z,69.10
2018-03-07T07:05:28.972Z,69.05
2018-03-07T07:08:04.106Z,69.82
2018-03-07T07:10:38.617Z,72.28
2018-03-07T07:13:13.548Z,71.53
2018-03-07T07:15:48.477Z,73.93
2018-03-07T07:18:23.025Z,71.32
2018-03-07T07:20:57.522Z,73.20
2018-03-07T07:23:32.342Z,71.22
2018-03-07T07:26:07.790Z,72.22
2018-03-07T07:28:42.265Z,76.87
2018-03-07T07:31:17.456Z,74.78
2018-03-07T07:33:51.926Z,81.05
2018-03-07T07:36:26.921Z,75.57
2018-03-07T07:39:01.380Z,76.62
2018-03-07T07:41:35.897Z,72.80
2018-03-07T07:44:10.366Z,75.43
2018-03-07T07:46:44.819Z,76.30
2018-03-07T07:49:19.270Z,72.00
2018-03-07T07:51:53.697Z,75.50
2018-03-07T07:54:28.134Z,78.80
2018-03-07T07:57:02.684Z,72.78
2018-03-07T07:59:37.228Z,70.25
2018-03-07T08:02:11.940Z,73.22
2018-03-07T08:04:46.433Z,81.10
2018-03-07T08:07:21.596Z,74.28
2018-03-07T08:09:55.996Z,76.28
2018-03-07T08:12:30.358Z,78.93
2018-03-07T08:15:04.870Z,74.15
2018-03-07T08:17:39.492Z,75.80
2018-03-07T08:20:14.054Z,79.32
2018-03-07T08:22:48.745Z,78.00
2018-03-07T08:25:23.337Z,77.90
2018-03-07T08:27:59.213Z,74.85
2018-03-07T08:30:33.735Z,76.95
2018-03-07T08:33:09.084Z,78.35
2018-03-07T08:35:43.720Z,77.28
2018-03-07T08:38:18.233Z,76.72
2018-03-07T08:40:53.564Z,74.45
2018-03-07T08:43:28.063Z,74.97
2018-03-07T08:46:02.584Z,72.18
2018-03-07T08:48:37.145Z,74.90
2018-03-07T08:51:11.560Z,75.10
2018-03-07T08:53:47.005Z,70.25
2018-03-07T08:56:22.300Z,78.95
2018-03-07T08:58:56.906Z,73.85
2018-03-07T09:01:31.341Z,76.78
2018-03-07T09:04:05.899Z,71.87
2018-03-07T09:06:41.045Z,75.25
2018-03-07T09:09:15.780Z,74.75
2018-03-07T09:11:50.218Z,76.37
2018-03-07T09:14:25.028Z,73.25
2018-03-07T09:16:59.599Z,71.87
2018-03-07T09:19:34.877Z,75.35
2018-03-07T09:22:10.046Z,74.82
2018-03-07T09:24:44.613Z,76.90
2018-03-07T09:27:19.297Z,75.93
2018-03-07T09:29:54.836Z,75.62
2018-03-07T09:32:30.092Z,77.35
2018-03-07T09:35:04.919Z,74.93
2018-03-07T09:37:39.615Z,73.18
2018-03-07T09:40:14.258Z,74.90
2018-03-07T09:42:48.664Z,73.80
2018-03-07T09:45:23.417Z,73.90
2018-03-07T09:47:57.801Z,76.93
2018-03-07T09:50:32.257Z,81.75
2018-03-07T09:53:06.656Z,78.93
2018-03-07T09:55:41.089Z,73.18
2018-03-07T09:58:16.230Z,72.45
2018-03-07T10:00:50.750Z,76.87
2018-03-07T10:03:25.245Z,68.97
2018-03-07T10:06:00.004Z,80.20
2018-03-07T10:08:34.426Z,77.22
2018-03-07T10:11:10.481Z,72.25
2018-03-07T10:13:45.013Z,76.43
2018-03-07T10:16:19.959Z,72.68
2018-03-07T10:18:54.439Z,74.50
2018-03-07T10:21:29.184Z,72.10
2018-03-07T10:24:03.625Z,73.47
2018-03-07T10:26:39.121Z,73.75
2018-03-07T10:29:13.468Z,68.72
2018-03-07T10:31:47.901Z,73.68
2018-03-07T10:34:23.210Z,73.62
2018-03-07T10:36:58.580Z,72.97
2018-03-07T10:39:32.874Z,74.30
2018-03-07T10:42:07.636Z,72.80
2018-03-07T10:44:42.124Z,76.28
2018-03-07T10:47:16.872Z,73.03
2018-03-07T10:49:51.272Z,70.18
2018-03-07T10:52:25.751Z,67.07
2018-03-07T10:55:00.258Z,73.53
2018-03-07T10:57:34.636Z,67.03
2018-03-07T11:00:09.784Z,67.15
2018-03-07T11:02:44.442Z,69.28
2018-03-07T11:05:18.768Z,68.78
2018-03-07T11:07:53.294Z,67.60
2018-03-07T11:10:28.952Z,71.75
2018-03-07T11:13:03.767Z,69.68
2018-03-07T11:15:38.277Z,69.32
2018-03-07T11:18:12.790Z,72.75
2018-03-07T11:20:47.108Z,68.07
2018-03-07T11:23:21.636Z,69.65
2018-03-07T11:25:56.781Z,69.43
2018-03-07T11:28:31.961Z,70.53
2018-03-07T11:31:06.328Z,66.93
2018-03-07T11:33:40.962Z,62.30
2018-03-07T11:36:15.573Z,70.57
2018-03-07T11:38:50.207Z,67.78
2018-03-07T11:41:25.488Z,66.90
2018-03-07T11:44:00.081Z,67.90
2018-03-07T11:46:34.356Z,65.18
2018-03-07T11:49:08.929Z,63.08
2018-03-07T11:51:43.216Z,66.85
2018-03-07T11:54:18.813Z,63.25
2018-03-07T11:56:53.250Z,65.70
2018-03-07T11:59:27.793Z,65.20
2018-03-07T12:02:02.248Z,64.97
2018-03-07T12:04:37.177Z,60.15
2018-03-07T12:07:11.652Z,59.63
2018-03-07T12:09:46.172Z,61.17
2018-03-07T12:12:20.526Z,63.75
2018-03-07T12:14:55.276Z,63.25
2018-03-07T12:17:30.537Z,59.25
2018-03-07T12:20:04.940Z,58.15
2018-03-07T12:22:39.581Z,60.28
2018-03-07T12:25:14.188Z,59.13
2018-03-07T12:27:48.620Z,59.63
2018-03-07T12:30:23.849Z,62.13
2018-03-07T12:32:58.342Z,54.63
2018-03-07T12:35:34.161Z,56.17
2018-03-07T12:38:08.669Z,60.83
2018-03-07T12:40:43.374Z,60.95
2018-03-07T12:43:18.633Z,59.33
2018-03-07T12:45:53.675Z,62.05
2018-03-07T12:48:28.127Z,56.20
2018-03-07T12:51:02.758Z,55.70
2018-03-07T12:53:37.524Z,55.95
2018-03-07T12:56:12.144Z,59.45
2018-03-07T12:58:47.083Z,60.55
2018-03-07T13:01:21.809Z,59.38
2018-03-07T13:03:56.196Z,59.22
2018-03-07T13:06:31.464Z,57.13
2018-03-07T13:09:05.829Z,56.80
2018-03-07T13:11:40.512Z,53.83
2018-03-07T13:14:15.048Z,55.67
2018-03-07T13:16:49.761Z,59.00
2018-03-07T13:19:24.188Z,56.20
2018-03-07T13:21:58.729Z,52.47
2018-03-07T13:24:33.957Z,54.10
2018-03-07T13:27:08.680Z,52.80
2018-03-07T13:29:43.249Z,53.47
2018-03-07T13:32:17.926Z,56.08
2018-03-07T13:34:53.070Z,54.90
2018-03-07T13:37:28.205Z,55.45
2018-03-07T13:40:02.521Z,52.53
2018-03-07T13:42:37.169Z,54.70
2018-03-07T13:45:11.525Z,53.10
2018-03-07T13:47:46.081Z,52.70
2018-03-07T13:50:21.353Z,53.28
2018-03-07T13:52:55.821Z,54.05
2018-03-07T13:55:30.293Z,58.60
2018-03-07T13:58:04.908Z,56.37
2018-03-07T14:00:39.277Z,52.50
2018-03-07T14:03:13.752Z,57.05
2018-03-07T14:05:48.200Z,57.10
2018-03-07T14:08:23.233Z,52.83
2018-03-07T14:10:57.637Z,50.50
2018-03-07T14:13:32.252Z,49.15
2018-03-07T14:16:06.718Z,49.72
2018-03-07T14:18:42.127Z,49.25
2018-03-07T14:21:16.541Z,52.47
2018-03-07T14:23:51.745Z,51.72
2018-03-07T14:26:26.296Z,53.53
2018-03-07T14:29:00.834Z,52.15
2018-03-07T14:31:35.357Z,55.22
2018-03-07T14:34:09.881Z,53.10
2018-03-07T14:36:44.604Z,52.92
2018-03-07T14:39:19.341Z,53.95
2018-03-07T14:41:55.211Z,56.22
2018-03-07T14:44:30.605Z,53.80
2018-03-07T14:47:05.701Z,54.42
2018-03-07T14:49:40.199Z,51.42
2018-03-07T14:52:14.649Z,50.33
2018-03-07T14:54:49.336Z,48.53
2018-03-07T14:57:23.829Z,52.08
2018-03-07T14:59:58.593Z,47.17
2018-03-07T15:02:33.029Z,53.22
2018-03-07T15:05:08.466Z,48.40
2018-03-07T15:07:43.020Z,51.45
2018-03-07T15:10:17.682Z,49.88
2018-03-07T15:12:52.192Z,51.90
2018-03-07T15:15:26.757Z,50.47
2018-03-07T15:18:01.784Z,51.92
2018-03-07T15:20:36.282Z,48.47
2018-03-07T15:23:10.531Z,47.85
2018-03-07T15:25:45.260Z,49.85
2018-03-07T15:28:20.013Z,46.90
2018-03-07T15:30:54.708Z,51.55
2018-03-07T15:33:29.393Z,49.47
2018-03-07T15:36:05.225Z,44.70
2018-03-07T15:38:39.654Z,44.90
2018-03-07T15:41:14.213Z,43.03
2018-03-07T15:43:48.700Z,44.85
2018-03-07T15:46:23.281Z,43.90
2018-03-07T15:48:57.688Z,43.17
2018-03-07T15:51:32.135Z,47.30
2018-03-07T15:54:06.613Z,46.47
2018-03-07T15:56:41.185Z,45.00
2018-03-07T15:59:15.648Z,47.78
2018-03-07T16:01:50.420Z,49.47
2018-03-07T16:04:25.554Z,47.05
2018-03-07T16:07:00.096Z,51.03
2018-03-07T16:09:34.556Z,50.20
2018-03-07T16:12:09.128Z,43.28
2018-03-07T16:14:44.476Z,46.50
2018-03-07T16:17:19.811Z,43.40
2018-03-07T16:19:54.285Z,46.03
2018-03-07T16:22:28.857Z,48.87
2018-03-07T16:25:03.378Z,46.13
2018-03-07T16:27:37.921Z,47.30
2018-03-07T16:30:12.365Z,42.83
2018-03-07T16:32:46.750Z,50.12
2018-03-07T16:35:21.266Z,41.28
2018-03-07T16:37:56.005Z,47.35
2018-03-07T16:40:30.789Z,37.53
2018-03-07T16:43:05.924Z,37.85
2018-03-07T16:45:40.394Z,37.58
2018-03-07T16:48:14.838Z,41.13
2018-03-07T16:50:49.405Z,43.17
2018-03-07T16:53:24.065Z,36.92
2018-03-07T16:55:58.577Z,39.85
2018-03-07T16:58:33.899Z,39.08
2018-03-07T17:01:08.349Z,40.53
2018-03-07T17:03:42.969Z,42.22
2018-03-07T17:06:17.406Z,44.00
2018-03-07T17:08:52.084Z,36.75
2018-03-07T17:11:26.528Z,41.15
2018-03-07T17:14:01.090Z,39.35
2018-03-07T17:16:35.505Z,37.05
2018-03-07T17:19:10.106Z,37.55
2018-03-07T17:21:44.693Z,36.17
2018-03-07T17:24:19.362Z,36.20
2018-03-07T17:26:53.672Z,33.53
2018-03-07T17:29:28.405Z,34.28
2018-03-07T17:32:02.842Z,36.70
2018-03-07T17:34:38.101Z,36.92
2018-03-07T17:37:13.206Z,37.35
2018-03-07T17:39:47.749Z,42.03
2018-03-07T17:42:23.686Z,39.53
2018-03-07T17:44:58.420Z,39.55
2018-03-07T17:47:34.094Z,39.05
2018-03-07T17:50:08.961Z,39.25
2018-03-07T17:52:43.505Z,41.35
2018-03-07T17:55:18.148Z,36.65
2018-03-07T17:57:52.666Z,41.10
2018-03-07T18:00:27.296Z,39.35
2018-03-07T18:03:01.721Z,39.05
2018-03-07T18:05:36.342Z,41.28
2018-03-07T18:08:10.888Z,37.05
2018-03-07T18:10:45.797Z,34.78
2018-03-07T18:13:20.277Z,34.67
2018-03-07T18:15:54.915Z,40.05
2018-03-07T18:18:29.642Z,41.97
2018-03-07T18:21:04.277Z,46.72
2018-03-07T18:23:39.432Z,41.80
2018-03-07T18:26:14.745Z,37.45
2018-03-07T18:28:49.247Z,39.10
2018-03-07T18:31:24.037Z,40.58
2018-03-07T18:33:59.184Z,41.45
2018-03-07T18:36:33.683Z,44.90
2018-03-07T18:39:08.082Z,46.63
2018-03-07T18:41:42.625Z,43.40
2018-03-07T18:44:17.256Z,40.28
2018-03-07T18:46:51.741Z,43.95
2018-03-07T18:49:26.116Z,37.45
2018-03-07T18:52:01.440Z,33.45
2018-03-07T18:54:36.021Z,34.67
2018-03-07T18:57:11.817Z,36.00
2018-03-07T18:59:47.482Z,39.97
2018-03-07T19:02:21.944Z,36.47
2018-03-07T19:04:56.333Z,40.20
2018-03-07T19:07:30.933Z,39.25
2018-03-07T19:10:05.556Z,39.65
2018-03-07T19:12:39.984Z,44.25
2018-03-07T19:15:14.493Z,41.45
2018-03-07T19:17:49.840Z,38.67
2018-03-07T19:20:24.953Z,35.75
2018-03-07T19:23:00.334Z,39.75
2018-03-07T19:25:34.665Z,47.65
2018-03-07T19:28:09.387Z,39.10
2018-03-07T19:30:43.868Z,40.50
2018-03-07T19:33:18.293Z,39.10
2018-03-07T19:35:52.722Z,38.95
2018-03-07T19:38:27.257Z,41.60
2018-03-07T19:41:01.758Z,46.35
2018-03-07T19:43:36.730Z,35.17
2018-03-07T19:46:11.057Z,34.97
2018-03-07T19:48:45.644Z,38.33
2018-03-07T19:51:20.043Z,39.65
2018-03-07T19:53:54.612Z,36.03
2018-03-07T19:56:28.997Z,38.17
2018-03-07T19:59:03.684Z,35.28
2018-03-07T20:01:39.017Z,36.15
2018-03-07T20:04:13.513Z,47.30
2018-03-07T20:06:47.937Z,39.08
2018-03-07T20:09:22.772Z,43.15
2018-03-07T20:11:57.604Z,45.22
2018-03-07T20:14:32.325Z,43.58
2018-03-07T20:17:06.847Z,38.50
2018-03-07T20:19:41.365Z,36.63
2018-03-07T20:22:15.904Z,36.97
2018-03-07T20:24:51.245Z,52.65
2018-03-07T20:27:25.711Z,36.25
2018-03-07T20:30:00.280Z,36.80
2018-03-07T20:32:34.683Z,49.80
2018-03-07T20:35:09.331Z,37.50
2018-03-07T20:37:43.765Z,41.63
2018-03-07T20:40:18.370Z,36.90
2018-03-07T20:42:52.850Z,36.80
2018-03-07T20:45:28.857Z,38.47
2018-03-07T20:48:03.569Z,43.25
2018-03-07T20:50:38.106Z,35.88
2018-03-07T20:53:12.653Z,37.13
2018-03-07T20:55:47.217Z,45.63
2018-03-07T20:58:21.699Z,35.40
2018-03-07T21:00:56.197Z,36.67
2018-03-07T21:03:30.628Z,36.45
2018-03-07T21:06:05.246Z,43.03
2018-03-07T21:08:39.832Z,41.65
2018-03-07T21:11:14.357Z,44.00
2018-03-07T21:13:49.423Z,47.53
2018-03-07T21:16:24.157Z,50.65
2018-03-07T21:18:59.508Z,46.80
2018-03-07T21:21:34.248Z,39.30
2018-03-07T21:24:08.688Z,44.95
2018-03-07T21:26:43.476Z,44.75
2018-03-07T21:29:17.997Z,43.67
2018-03-07T21:31:52.634Z,46.67
2018-03-07T21:34:26.985Z,46.35
2018-03-07T21:37:01.589Z,49.72
2018-03-07T21:39:36.052Z,40.00
2018-03-07T21:42:10.610Z,50.70
2018-03-07T21:44:45.068Z,46.25
2018-03-07T21:47:19.862Z,41.58
2018-03-07T21:49:54.701Z,46.05
2018-03-07T21:52:29.177Z,40.78
2018-03-07T21:55:04.560Z,42.00
2018-03-07T21:57:39.772Z,45.05
2018-03-07T22:00:14.312Z,38.35
2018-03-07T22:02:48.841Z,45.25
2018-03-07T22:05:24.097Z,46.17
2018-03-07T22:07:58.711Z,50.33
2018-03-07T22:10:33.201Z,52.95
2018-03-07T22:13:09.004Z,43.35
2018-03-07T22:15:44.117Z,47.80
2018-03-07T22:18:18.659Z,43.60
2018-03-07T22:20:53.245Z,45.30
2018-03-07T22:23:27.692Z,41.37
2018-03-07T22:26:02.909Z,46.85
2018-03-07T22:28:38.145Z,39.72
2018-03-07T22:31:12.645Z,42.60
2018-03-07T22:33:48.348Z,43.05
2018-03-07T22:36:22.699Z,43.70
2018-03-07T22:38:57.292Z,53.80
2018-03-07T22:41:31.702Z,50.88
2018-03-07T22:44:06.687Z,51.58
2018-03-07T22:46:41.325Z,53.60
2018-03-07T22:49:15.993Z,46.40
2018-03-07T22:51:50.442Z,42.00
2018-03-07T22:54:25.657Z,41.10
2018-03-07T22:57:00.178Z,49.95
2018-03-07T22:59:34.917Z,44.28
2018-03-07T23:02:10.558Z,43.08
2018-03-07T23:04:45.185Z,42.10
2018-03-07T23:07:19.582Z,39.70
2018-03-07T23:09:54.229Z,36.55
2018-03-07T23:12:28.677Z,38.00
2018-03-07T23:15:03.287Z,36.90
2018-03-07T23:17:37.881Z,34.30
2018-03-07T23:20:12.529Z,33.50
2018-03-07T23:22:46.941Z,33.00
2018-03-07T23:25:21.573Z,35.67
2018-03-07T23:27:56.077Z,36.65
2018-03-07T23:30:30.637Z,41.83
2018-03-07T23:33:05.077Z,46.22
2018-03-07T23:35:39.684Z,45.65
2018-03-07T23:38:14.931Z,47.58
2018-03-07T23:40:50.153Z,43.15
2018-03-07T23:43:24.637Z,42.33
2018-03-07T23:45:59.200Z,40.70
2018-03-07T23:48:33.807Z,44.83
2018-03-07T23:51:08.516Z,42.30
2018-03-07T23:53:42.761Z,45.42
2018-03-07T23:56:18.109Z,47.05
2018-03-07T23:58:53.236Z,45.47
